Time;durP1;ratioP1;P1;durP2;ratioP2;P2;SDS_P1;SDS_P2;PMS_P1;PMS_P2;Temp;Humidity;BMP_temperature;BMP_pressure;BME280_temperature;BME280_humidity;BME280_pressure;Samples;Min_cycle;Max_cycle;Signal;HPM_P1;HPM_P2
2023/04/18 00:00:11;;;;;;;95.30;44.85;;;13.80;91.40;;;;;;7381863;19;20023;-71
2023/04/18 00:02:42;;;;;;;97.97;45.00;;;13.80;91.40;;;;;;7382316;19;20034;-70
2023/04/18 00:05:11;;;;;;;94.80;44.90;;;13.80;91.60;;;;;;7381098;19;20017;-70
2023/04/18 00:07:40;;;;;;;89.97;44.50;;;13.70;91.40;;;;;;7402564;19;20027;-71
2023/04/18 00:10:12;;;;;;;90.88;45.08;;;13.80;91.30;;;;;;7381024;19;20382;-71
2023/04/18 00:12:41;;;;;;;93.05;45.03;;;13.70;91.40;;;;;;7382888;19;19999;-71
2023/04/18 00:15:11;;;;;;;92.28;46.50;;;13.80;91.80;;;;;;7383245;19;20002;-71
2023/04/18 00:17:40;;;;;;;93.35;46.65;;;13.70;91.30;;;;;;7381143;19;20030;-71
2023/04/18 00:20:11;;;;;;;94.35;45.33;;;13.70;91.40;;;;;;7382380;19;20046;-71
2023/04/18 00:22:41;;;;;;;97.60;46.10;;;13.50;91.40;;;;;;7401526;19;20011;-71
2023/04/18 00:25:13;;;;;;;91.18;45.08;;;13.60;91.40;;;;;;7381505;19;20370;-71
2023/04/18 00:27:42;;;;;;;93.40;46.40;;;13.50;91.40;;;;;;7381341;19;20063;-71
2023/04/18 00:30:12;;;;;;;101.25;46.38;;;13.50;91.40;;;;;;7380270;19;20068;-71
2023/04/18 00:32:41;;;;;;;88.50;45.70;;;13.40;91.40;;;;;;7379469;19;20295;-71
2023/04/18 00:35:10;;;;;;;94.68;46.35;;;13.50;91.40;;;;;;7380472;19;20351;-71
2023/04/18 00:37:44;;;;;;;97.53;47.03;;;13.60;91.30;;;;;;7402841;19;20078;-71
2023/04/18 00:40:16;;;;;;;92.57;46.45;;;13.50;91.30;;;;;;7381169;19;20012;-71
2023/04/18 00:42:44;;;;;;;89.45;44.72;;;13.40;91.40;;;;;;7381114;19;20014;-71
2023/04/18 00:45:13;;;;;;;97.15;45.15;;;13.40;91.30;;;;;;7380316;19;20412;-71
2023/04/18 00:47:42;;;;;;;95.60;45.95;;;13.40;91.40;;;;;;7379521;19;20006;-71
2023/04/18 00:50:12;;;;;;;94.13;46.78;;;13.50;91.40;;;;;;7381688;19;20010;-72
2023/04/18 00:52:41;;;;;;;92.07;47.67;;;13.40;91.40;;;;;;7400359;19;20010;-71
2023/04/18 00:55:11;;;;;;;104.78;49.33;;;13.50;91.40;;;;;;7380077;19;20078;-72
2023/04/18 00:57:43;;;;;;;104.10;47.63;;;13.50;91.30;;;;;;7380342;19;20096;-70
2023/04/18 01:00:14;;;;;;;99.40;47.75;;;13.40;91.40;;;;;;7380462;19;20030;-70
2023/04/18 01:02:42;;;;;;;105.30;49.38;;;13.40;91.50;;;;;;7379895;19;20020;-71
2023/04/18 01:05:11;;;;;;;110.28;48.95;;;13.50;91.50;;;;;;7380110;19;20031;-71
2023/04/18 01:07:42;;;;;;;106.68;49.35;;;13.50;91.50;;;;;;7400123;19;20002;-71
2023/04/18 01:10:12;;;;;;;110.88;49.65;;;13.50;91.50;;;;;;7379608;19;20055;-71
2023/04/18 01:12:43;;;;;;;111.80;51.60;;;13.40;91.50;;;;;;7378720;19;20016;-71
2023/04/18 01:15:13;;;;;;;105.68;49.70;;;13.40;91.50;;;;;;7381793;19;20003;-71
2023/04/18 01:17:42;;;;;;;109.63;49.50;;;13.40;91.60;;;;;;7376973;19;20299;-71
2023/04/18 01:20:12;;;;;;;108.22;48.90;;;13.40;91.60;;;;;;7379187;19;20029;-71
2023/04/18 01:22:41;;;;;;;109.43;49.92;;;13.40;91.70;;;;;;7400993;19;20223;-71
2023/04/18 01:25:13;;;;;;;103.45;49.65;;;13.40;91.70;;;;;;7378624;19;19999;-71
2023/04/18 01:27:42;;;;;;;97.55;48.85;;;13.30;91.80;;;;;;7377966;19;20099;-72
2023/04/18 01:30:12;;;;;;;107.63;51.70;;;13.20;91.90;;;;;;7380238;19;20003;-71
2023/04/18 01:32:41;;;;;;;105.35;50.75;;;13.20;92.00;;;;;;7380230;19;20024;-72
2023/04/18 01:35:10;;;;;;;100.22;50.03;;;13.20;92.00;;;;;;7380425;19;20002;-71
2023/04/18 01:37:39;;;;;;;100.43;52.15;;;13.20;92.00;;;;;;7401707;19;20055;-71
2023/04/18 01:40:12;;;;;;;106.25;51.72;;;13.10;92.00;;;;;;7378924;19;20010;-71
2023/04/18 01:42:41;;;;;;;105.07;52.33;;;13.30;92.00;;;;;;7380108;19;20011;-71
2023/04/18 01:45:10;;;;;;;111.80;50.22;;;13.10;92.10;;;;;;7380577;19;20007;-69
2023/04/18 01:47:39;;;;;;;106.18;51.72;;;13.10;92.20;;;;;;7379801;19;20010;-70
2023/04/18 01:50:09;;;;;;;106.35;51.92;;;13.10;92.10;;;;;;7379906;19;20067;-70
2023/04/18 01:52:37;;;;;;;114.25;52.95;;;13.00;92.20;;;;;;7399519;19;20023;-71
2023/04/18 01:55:07;;;;;;;113.50;53.10;;;13.10;92.30;;;;;;7378397;19;20011;-72
2023/04/18 01:57:38;;;;;;;112.63;53.63;;;13.10;92.30;;;;;;7378263;19;20009;-71
2023/04/18 02:00:08;;;;;;;112.07;52.85;;;13.10;92.20;;;;;;7378876;19;20348;-71
2023/04/18 02:02:37;;;;;;;108.55;52.85;;;13.20;92.20;;;;;;7377099;19;20067;-72
2023/04/18 02:05:06;;;;;;;104.38;51.70;;;13.20;92.20;;;;;;7378571;19;20062;-72
2023/04/18 02:07:37;;;;;;;107.40;50.75;;;13.10;92.10;;;;;;7397420;19;20070;-71
2023/04/18 02:10:06;;;;;;;102.85;52.40;;;13.20;92.10;;;;;;7377962;19;20024;-71
2023/04/18 02:12:37;;;;;;;113.40;52.22;;;13.10;92.10;;;;;;7377991;19;20003;-71
2023/04/18 02:15:07;;;;;;;110.38;53.45;;;13.00;92.40;;;;;;7378180;19;20006;-71
2023/04/18 02:17:36;;;;;;;112.13;52.67;;;13.00;92.40;;;;;;7376742;19;20011;-72
2023/04/18 02:20:07;;;;;;;117.47;55.17;;;13.00;92.40;;;;;;7376050;19;20010;-70
2023/04/18 02:22:36;;;;;;;106.95;52.05;;;13.00;92.40;;;;;;7399286;19;20018;-71
2023/04/18 02:25:05;;;;;;;105.72;52.45;;;12.90;92.40;;;;;;7376643;19;20009;-71
2023/04/18 02:27:33;;;;;;;104.35;51.88;;;12.90;92.40;;;;;;7375293;19;20074;-71
2023/04/18 02:30:05;;;;;;;119.53;56.67;;;12.90;92.40;;;;;;7382678;19;20028;-71
2023/04/18 02:32:33;;;;;;;;;;;12.80;92.60;;;;;;7385756;19;20024;-71
2023/04/18 02:35:02;;;;;;;113.53;53.05;;;13.00;92.50;;;;;;7384603;19;19974;-71
2023/04/18 02:37:31;;;;;;;113.93;52.88;;;12.90;92.30;;;;;;7406475;19;20083;-70
2023/04/18 02:39:59;;;;;;;103.85;49.17;;;12.80;92.50;;;;;;7384339;19;20387;-71
2023/04/18 02:42:28;;;;;;;112.22;51.92;;;12.80;92.50;;;;;;7384932;19;19999;-70
2023/04/18 02:44:57;;;;;;;102.65;50.53;;;12.90;92.60;;;;;;7385033;19;20082;-70
2023/04/18 02:47:28;;;;;;;108.95;51.63;;;13.00;92.40;;;;;;7381514;19;20003;-71
2023/04/18 02:49:57;;;;;;;112.53;51.50;;;13.00;92.20;;;;;;7384243;19;20015;-71
2023/04/18 02:52:27;;;;;;;104.10;50.72;;;13.00;92.10;;;;;;7405920;19;20011;-71
2023/04/18 02:54:55;;;;;;;105.82;49.10;;;12.90;92.10;;;;;;7382837;19;20354;-71
2023/04/18 02:57:24;;;;;;;98.10;48.80;;;12.80;92.10;;;;;;7384127;19;20083;-71
2023/04/18 02:59:53;;;;;;;103.30;49.78;;;12.90;92.10;;;;;;7383031;19;20035;-71
2023/04/18 03:02:21;;;;;;;101.40;48.65;;;12.70;92.10;;;;;;7383985;19;20007;-71
2023/04/18 03:04:53;;;;;;;101.70;49.70;;;12.80;92.00;;;;;;7405365;19;20350;-70
2023/04/18 03:07:21;;;;;;;99.55;49.65;;;12.70;92.00;;;;;;7383683;19;20003;-70
2023/04/18 03:09:50;;;;;;;100.63;48.53;;;12.80;92.00;;;;;;7383084;19;20098;-70
2023/04/18 03:12:19;;;;;;;110.75;48.25;;;12.80;92.00;;;;;;7384475;19;20019;-71
2023/04/18 03:14:47;;;;;;;97.25;48.13;;;12.70;92.00;;;;;;7383114;19;20072;-70
2023/04/18 03:17:16;;;;;;;98.47;49.40;;;12.70;92.00;;;;;;7382480;19;20011;-70
2023/04/18 03:19:45;;;;;;;99.95;50.05;;;12.70;92.00;;;;;;7404584;19;20051;-70
2023/04/18 03:22:18;;;;;;;100.28;47.70;;;12.70;91.90;;;;;;7383312;19;20003;-70
2023/04/18 03:24:46;;;;;;;101.90;48.80;;;12.60;91.80;;;;;;7383065;19;20292;-70
2023/04/18 03:27:15;;;;;;;108.07;49.58;;;12.80;91.80;;;;;;7383028;19;20082;-70
2023/04/18 03:29:44;;;;;;;100.47;50.17;;;12.70;91.70;;;;;;7381641;19;20010;-70
2023/04/18 03:32:12;;;;;;;88.03;45.53;;;12.80;91.70;;;;;;7381065;19;20026;-71
2023/04/18 03:34:41;;;;;;;90.90;47.03;;;12.80;91.60;;;;;;7401946;19;20011;-70
2023/04/18 03:37:10;;;;;;;96.30;47.58;;;12.80;91.70;;;;;;7382090;19;20009;-71
2023/04/18 03:39:41;;;;;;;94.50;47.58;;;12.70;91.70;;;;;;7381821;19;20453;-71
2023/04/18 03:42:10;;;;;;;96.15;47.35;;;12.70;91.70;;;;;;7380192;19;20070;-71
2023/04/18 03:44:38;;;;;;;103.63;48.97;;;12.60;91.80;;;;;;7381001;19;20019;-74
2023/04/18 03:47:07;;;;;;;102.20;49.63;;;12.40;91.90;;;;;;7382953;19;20006;-71
2023/04/18 03:49:36;;;;;;;97.75;47.85;;;12.50;92.00;;;;;;7404444;19;20025;-70
2023/04/18 03:52:04;;;;;;;108.70;50.00;;;12.50;92.00;;;;;;7381348;19;20070;-70
2023/04/18 03:54:33;;;;;;;101.95;49.10;;;12.50;92.00;;;;;;7382248;19;20683;-71
2023/04/18 03:57:04;;;;;;;102.57;50.75;;;12.50;91.90;;;;;;7383835;19;20011;-71
2023/04/18 03:59:33;;;;;;;102.47;48.63;;;12.50;92.00;;;;;;7381051;19;20003;-71
2023/04/18 04:02:02;;;;;;;104.45;48.38;;;12.50;92.10;;;;;;7382761;19;20015;-71
2023/04/18 04:04:30;;;;;;;108.53;49.60;;;12.50;92.10;;;;;;7401246;19;20024;-71
2023/04/18 04:06:59;;;;;;;106.95;50.35;;;12.50;92.10;;;;;;7381696;19;20015;-71
2023/04/18 04:09:28;;;;;;;96.30;48.65;;;12.60;92.20;;;;;;7381760;19;20002;-71
2023/04/18 04:11:57;;;;;;;106.75;50.97;;;12.60;92.00;;;;;;7382717;19;20019;-71
2023/04/18 04:14:28;;;;;;;102.45;50.80;;;12.60;92.10;;;;;;7382864;19;20019;-71
2023/04/18 04:16:57;;;;;;;111.15;52.15;;;12.50;92.00;;;;;;7381830;19;20011;-71
2023/04/18 04:19:25;;;;;;;107.43;51.10;;;12.60;92.10;;;;;;7400548;19;20014;-71
2023/04/18 04:21:54;;;;;;;112.53;53.70;;;12.40;92.20;;;;;;7381030;19;20024;-71
2023/04/18 04:24:23;;;;;;;117.57;54.97;;;12.40;92.40;;;;;;7380527;19;20082;-71
2023/04/18 04:26:52;;;;;;;121.75;53.35;;;12.30;92.50;;;;;;7381313;19;20022;-71
2023/04/18 04:29:22;;;;;;;107.32;51.85;;;12.30;92.60;;;;;;7379392;19;20007;-71
2023/04/18 04:31:54;;;;;;;113.35;53.70;;;12.40;92.50;;;;;;7400827;19;20023;-71
2023/04/18 04:34:23;;;;;;;112.88;53.67;;;12.40;92.50;;;;;;7380883;19;20020;-71
2023/04/18 04:36:52;;;;;;;117.28;55.60;;;12.50;92.50;;;;;;7380397;19;20070;-71
2023/04/18 04:39:21;;;;;;;109.80;52.80;;;12.40;92.50;;;;;;7380358;19;20011;-71
2023/04/18 04:41:52;;;;;;;123.15;55.75;;;12.40;92.70;;;;;;7380172;19;20024;-71
2023/04/18 04:44:21;;;;;;;113.13;53.55;;;12.40;92.60;;;;;;7380862;19;19999;-71
2023/04/18 04:46:49;;;;;;;112.65;54.70;;;12.30;92.70;;;;;;7402627;19;20043;-71
2023/04/18 04:49:21;;;;;;;109.15;53.10;;;12.40;92.80;;;;;;7378951;19;20027;-71
2023/04/18 04:51:49;;;;;;;121.75;54.35;;;12.30;92.80;;;;;;7379788;19;20009;-71
2023/04/18 04:54:18;;;;;;;121.57;56.20;;;12.30;93.20;;;;;;7380536;19;20007;-70
2023/04/18 04:56:47;;;;;;;122.93;57.03;;;12.20;93.80;;;;;;7379734;19;20244;-71
2023/04/18 04:59:15;;;;;;;128.88;59.83;;;12.20;95.10;;;;;;7380911;19;20019;-71
2023/04/18 05:01:45;;;;;;;133.82;62.33;;;12.30;94.30;;;;;;7402316;19;20062;-71
2023/04/18 05:04:14;;;;;;;127.22;57.90;;;12.30;94.20;;;;;;7380778;19;20026;-71
2023/04/18 05:06:45;;;;;;;114.20;56.90;;;12.40;93.70;;;;;;7379877;19;20007;-71
2023/04/18 05:09:14;;;;;;;;;;;12.30;93.40;;;;;;7380535;19;20002;-71
2023/04/18 05:11:42;;;;;;;117.70;56.28;;;12.40;93.50;;;;;;7379744;19;19924;-71
2023/04/18 05:14:11;;;;;;;134.27;57.53;;;12.30;93.30;;;;;;7379003;19;20016;-71
2023/04/18 05:16:40;;;;;;;119.75;58.00;;;12.30;93.30;;;;;;7399523;19;20279;-71
2023/04/18 05:19:09;;;;;;;116.47;54.85;;;12.40;93.40;;;;;;7379144;19;20022;-70
2023/04/18 05:21:37;;;;;;;126.38;57.63;;;12.20;93.40;;;;;;7379252;19;20103;-70
2023/04/18 05:24:09;;;;;;;128.13;56.70;;;12.20;93.70;;;;;;7380123;19;20055;-71
2023/04/18 05:26:38;;;;;;;128.45;58.97;;;12.10;93.70;;;;;;7378866;19;20016;-71
2023/04/18 05:29:07;;;;;;;122.28;56.85;;;12.10;93.70;;;;;;7377615;19;20090;-70
2023/04/18 05:31:36;;;;;;;119.63;56.47;;;12.20;93.70;;;;;;7401016;19;20043;-70
2023/04/18 05:34:04;;;;;;;125.72;57.92;;;12.30;93.70;;;;;;7378632;19;20003;-70
2023/04/18 05:36:33;;;;;;;131.60;57.13;;;11.90;93.90;;;;;;7378935;19;20413;-70
2023/04/18 05:39:03;;;;;;;122.00;57.42;;;12.00;94.10;;;;;;7379398;19;20027;-72
2023/04/18 05:41:37;;;;;;;130.40;59.58;;;12.00;94.10;;;;;;7377803;19;20404;-72
2023/04/18 05:44:05;;;;;;;124.80;58.03;;;12.10;94.10;;;;;;7379180;19;20014;-71
2023/04/18 05:46:34;;;;;;;134.10;60.85;;;12.20;93.90;;;;;;7400429;19;20031;-70
2023/04/18 05:49:03;;;;;;;124.18;58.95;;;12.30;93.80;;;;;;7377131;19;20068;-71
2023/04/18 05:51:32;;;;;;;124.85;57.67;;;12.30;93.70;;;;;;7378268;19;20385;-71
2023/04/18 05:54:01;;;;;;;122.25;57.78;;;12.30;93.60;;;;;;7378737;19;20014;-71
2023/04/18 05:56:30;;;;;;;124.53;56.95;;;12.20;93.70;;;;;;7378431;19;20079;-71
2023/04/18 05:59:01;;;;;;;115.68;55.80;;;12.30;93.80;;;;;;7376320;19;20220;-71
2023/04/18 06:01:31;;;;;;;120.45;55.47;;;12.00;94.00;;;;;;7398296;19;20024;-72
2023/04/18 06:04:00;;;;;;;116.05;54.30;;;12.20;93.80;;;;;;7380641;19;20010;-71
2023/04/18 06:06:30;;;;;;;115.00;54.80;;;12.30;93.70;;;;;;7386350;19;20028;-72
2023/04/18 06:08:59;;;;;;;113.72;54.25;;;12.40;93.50;;;;;;7386499;19;20007;-71
2023/04/18 06:11:27;;;;;;;120.28;56.13;;;12.30;93.50;;;;;;7384048;19;20002;-72
2023/04/18 06:13:57;;;;;;;130.70;55.35;;;12.40;93.40;;;;;;7387750;19;20256;-72
2023/04/18 06:16:28;;;;;;;117.07;54.60;;;12.40;93.40;;;;;;7408159;19;20002;-72
2023/04/18 06:18:57;;;;;;;115.15;54.20;;;12.30;93.40;;;;;;7385819;19;20074;-72
2023/04/18 06:21:25;;;;;;;113.90;54.63;;;12.40;93.40;;;;;;7384834;19;20002;-72
2023/04/18 06:23:54;;;;;;;118.95;55.20;;;12.50;93.40;;;;;;7383434;19;20007;-72
2023/04/18 06:26:23;;;;;;;119.60;57.17;;;12.60;93.20;;;;;;7383448;19;20014;-72
2023/04/18 06:28:52;;;;;;;115.72;53.55;;;12.50;93.00;;;;;;7404235;19;20377;-72
2023/04/18 06:31:20;;;;;;;121.88;56.65;;;12.40;93.30;;;;;;7385335;19;20011;-72
2023/04/18 06:33:52;;;;;;;143.27;55.85;;;12.40;93.30;;;;;;7385358;19;20003;-71
2023/04/18 06:36:21;;;;;;;109.07;53.85;;;12.50;93.20;;;;;;7385427;19;20019;-72
2023/04/18 06:38:50;;;;;;;115.47;56.67;;;12.40;93.10;;;;;;7383440;19;20007;-72
2023/04/18 06:41:18;;;;;;;113.50;51.67;;;12.60;93.10;;;;;;7385082;19;20007;-72
2023/04/18 06:43:47;;;;;;;113.65;54.78;;;12.50;92.90;;;;;;7406270;19;20030;-72
2023/04/18 06:46:16;;;;;;;118.47;55.50;;;12.50;93.00;;;;;;7384029;19;20062;-72
2023/04/18 06:48:44;;;;;;;111.93;52.95;;;12.50;93.10;;;;;;7382738;19;20011;-72
2023/04/18 06:51:16;;;;;;;203.90;63.90;;;12.50;93.00;;;;;;7384706;19;20010;-72
2023/04/18 06:53:44;;;;;;;134.57;56.88;;;12.60;93.10;;;;;;7385222;19;20013;-71
2023/04/18 06:56:13;;;;;;;103.43;52.35;;;12.80;92.90;;;;;;7384592;19;20016;-72
2023/04/18 06:58:42;;;;;;;113.38;52.90;;;12.70;92.60;;;;;;7403005;19;20007;-72
2023/04/18 07:01:10;;;;;;;122.32;55.00;;;12.90;92.50;;;;;;7383659;19;20008;-72
2023/04/18 07:03:39;;;;;;;111.68;54.67;;;12.90;92.40;;;;;;7385042;19;20020;-71
2023/04/18 07:06:09;;;;;;;116.00;55.83;;;13.00;92.50;;;;;;7384649;19;20011;-72
2023/04/18 07:08:41;;;;;;;111.82;53.75;;;12.70;92.60;;;;;;7384993;19;20035;-71
2023/04/18 07:11:10;;;;;;;109.55;54.17;;;12.50;93.00;;;;;;7381630;19;20018;-71
2023/04/18 07:13:39;;;;;;;111.65;52.88;;;12.60;92.90;;;;;;7405512;19;20025;-72
2023/04/18 07:16:10;;;;;;;112.50;53.58;;;12.80;92.90;;;;;;7382379;19;20030;-72
2023/04/18 07:18:39;;;;;;;111.03;49.80;;;13.00;92.90;;;;;;7385030;19;20024;-73
2023/04/18 07:21:08;;;;;;;101.15;51.67;;;12.90;92.20;;;;;;7386347;19;20025;-74
2023/04/18 07:23:39;;;;;;;108.60;52.42;;;12.80;92.30;;;;;;7387435;19;20009;-73
2023/04/18 07:26:10;;;;;;;119.60;51.47;;;12.90;92.50;;;;;;7385146;19;20006;-72
2023/04/18 07:28:38;;;;;;;103.70;50.13;;;13.00;92.40;;;;;;7405932;19;20014;-72
2023/04/18 07:31:10;;;;;;;116.43;50.15;;;12.90;92.00;;;;;;7386052;19;20003;-71
2023/04/18 07:33:39;;;;;;;113.10;51.55;;;13.00;92.40;;;;;;7382413;19;20016;-73
2023/04/18 07:36:08;;;;;;;116.72;52.10;;;13.10;92.10;;;;;;7384260;19;20357;-73
2023/04/18 07:38:39;;;;;;;103.95;49.30;;;13.10;92.00;;;;;;7384142;19;20011;-73
2023/04/18 07:41:08;;;;;;;109.65;52.20;;;13.00;91.70;;;;;;7382132;19;20050;-74
2023/04/18 07:43:37;;;;;;;114.85;51.92;;;13.00;92.00;;;;;;7405788;19;20272;-73
2023/04/18 07:46:06;;;;;;;120.78;53.33;;;13.00;92.10;;;;;;7383870;19;20002;-73
2023/04/18 07:48:35;;;;;;;120.40;52.65;;;13.00;92.10;;;;;;7382147;19;20006;-72
2023/04/18 07:51:04;;;;;;;117.13;55.22;;;12.90;92.10;;;;;;7381919;19;20074;-73
2023/04/18 07:53:33;;;;;;;105.47;50.17;;;13.00;92.20;;;;;;7381148;19;20018;-73
2023/04/18 07:56:04;;;;;;;125.45;52.35;;;13.00;92.40;;;;;;7382942;19;20003;-73
2023/04/18 07:58:33;;;;;;;119.35;52.30;;;12.80;92.30;;;;;;7403556;19;20014;-73
2023/04/18 08:01:01;;;;;;;121.00;52.65;;;13.00;92.30;;;;;;7384824;19;20028;-73
2023/04/18 08:03:32;;;;;;;120.80;53.95;;;13.20;92.20;;;;;;7383030;19;20002;-72
2023/04/18 08:06:01;;;;;;;112.55;54.30;;;13.20;91.90;;;;;;7381721;19;20030;-72
2023/04/18 08:08:30;;;;;;;130.02;52.83;;;13.40;91.80;;;;;;7381964;19;20003;-72
2023/04/18 08:10:58;;;;;;;122.20;53.63;;;13.20;91.70;;;;;;7379534;19;20209;-71
2023/04/18 08:13:30;;;;;;;112.45;52.78;;;13.20;91.80;;;;;;7402956;19;20071;-72
2023/04/18 08:15:59;;;;;;;121.45;53.50;;;13.20;91.60;;;;;;7381750;19;20022;-72
2023/04/18 08:18:27;;;;;;;118.13;53.78;;;13.40;91.50;;;;;;7383577;19;20009;-72
2023/04/18 08:20:56;;;;;;;115.95;53.83;;;13.40;91.40;;;;;;7381294;19;20066;-72
2023/04/18 08:23:25;;;;;;;122.18;54.30;;;13.40;91.60;;;;;;7381764;19;20433;-71
2023/04/18 08:25:53;;;;;;;104.43;50.33;;;13.30;91.70;;;;;;7400715;19;20070;-72
2023/04/18 08:28:22;;;;;;;116.13;50.60;;;13.40;91.50;;;;;;7380259;19;20399;-72
2023/04/18 08:30:55;;;;;;;109.05;51.58;;;13.60;91.40;;;;;;7381542;19;20015;-72
2023/04/18 08:33:24;;;;;;;111.30;48.58;;;13.60;91.30;;;;;;7383123;19;20006;-72
2023/04/18 08:35:53;;;;;;;104.43;52.38;;;13.70;90.90;;;;;;7383045;19;20370;-74
2023/04/18 08:38:22;;;;;;;110.38;53.00;;;13.50;90.70;;;;;;7381564;19;20006;-73
2023/04/18 08:40:51;;;;;;;107.50;51.53;;;13.50;91.00;;;;;;7404509;19;20023;-73
2023/04/18 08:43:19;;;;;;;116.30;50.65;;;13.50;91.00;;;;;;7380395;19;20025;-72
2023/04/18 08:45:48;;;;;;;117.60;49.67;;;13.70;90.80;;;;;;7380235;19;19999;-73
2023/04/18 08:48:20;;;;;;;99.30;46.08;;;13.90;90.50;;;;;;7382541;19;20014;-72
2023/04/18 08:50:48;;;;;;;;;;;13.90;90.10;;;;;;7380517;19;20011;-71
2023/04/18 08:53:18;;;;;;;107.50;48.03;;;14.10;90.10;;;;;;7382553;19;19918;-71
2023/04/18 08:55:49;;;;;;;101.75;48.83;;;13.80;90.20;;;;;;7403977;19;20118;-72
2023/04/18 08:58:25;;;;;;;102.28;48.75;;;13.60;90.40;;;;;;7380587;19;20047;-71
2023/04/18 09:00:55;;;;;;;106.68;47.67;;;13.80;90.70;;;;;;7379582;19;20058;-71
2023/04/18 09:03:43;;;;;;;105.25;47.67;;;13.90;90.60;;;;;;7382270;19;20074;-72
2023/04/18 09:06:15;;;;;;;92.35;44.90;;;14.10;90.50;;;;;;7380376;19;20007;-72
2023/04/18 09:08:45;;;;;;;104.95;45.38;;;14.30;90.10;;;;;;7378951;19;20003;-72
2023/04/18 09:11:24;;;;;;;92.60;44.67;;;14.40;89.20;;;;;;7380221;19;20013;-72
2023/04/18 09:13:55;;;;;;;106.82;46.13;;;14.40;88.60;;;;;;7402277;19;20010;-72
2023/04/18 09:16:24;;;;;;;102.13;46.47;;;14.20;87.80;;;;;;7379397;19;20413;-72
2023/04/18 09:19:12;;;;;;;91.85;44.63;;;14.20;88.70;;;;;;7382573;19;20009;-72
2023/04/18 09:21:43;;;;;;;87.70;44.25;;;14.00;88.60;;;;;;7377849;19;20050;-72
2023/04/18 09:24:19;;;;;;;85.18;43.22;;;14.00;88.90;;;;;;7379021;19;20007;-71
2023/04/18 09:26:49;;;;;;;87.53;41.63;;;14.10;88.00;;;;;;7380401;19;20214;-72
2023/04/18 09:29:21;;;;;;;86.80;42.65;;;14.20;87.60;;;;;;7379048;19;20003;-72
2023/04/18 09:32:01;;;;;;;95.82;44.67;;;14.30;87.70;;;;;;7398632;19;20011;-71
2023/04/18 09:34:32;;;;;;;99.28;47.00;;;14.30;88.00;;;;;;7379751;19;20767;-71
2023/04/18 09:37:09;;;;;;;93.63;45.47;;;14.10;88.60;;;;;;7379838;19;20234;-72
2023/04/18 09:39:40;;;;;;;103.30;46.88;;;14.20;89.30;;;;;;7376980;19;20002;-72
2023/04/18 09:42:09;;;;;;;86.45;41.25;;;14.30;89.50;;;;;;7379530;19;20267;-73
2023/04/18 09:44:38;;;;;;;87.32;39.15;;;14.00;87.80;;;;;;7380832;19;20369;-72
2023/04/18 09:47:08;;;;;;;91.82;40.35;;;14.30;87.70;;;;;;7380022;19;20287;-72
2023/04/18 09:49:39;;;;;;;82.82;39.90;;;14.30;87.50;;;;;;7401718;19;20010;-70
2023/04/18 09:52:09;;;;;;;72.63;37.08;;;14.40;87.50;;;;;;7379610;19;20062;-72
2023/04/18 09:54:43;;;;;;;74.68;36.67;;;14.50;85.60;;;;;;7378882;19;20370;-71
2023/04/18 09:57:14;;;;;;;87.32;37.38;;;14.30;85.50;;;;;;7378762;19;20006;-71
2023/04/18 09:59:46;;;;;;;;;;;14.50;85.80;;;;;;7379421;19;20026;-71
2023/04/18 10:02:21;;;;;;;78.93;36.20;;;14.50;86.50;;;;;;7378184;19;19998;-70
2023/04/18 10:04:53;;;;;;;77.78;37.00;;;14.30;86.10;;;;;;7401709;19;20006;-73
2023/04/18 10:07:23;;;;;;;72.35;36.47;;;14.20;86.10;;;;;;7378061;19;20079;-71
2023/04/18 10:09:52;;;;;;;78.78;37.33;;;14.30;86.30;;;;;;7376428;19;20384;-71
2023/04/18 10:12:21;;;;;;;77.95;37.60;;;14.30;86.00;;;;;;7378109;19;20012;-71
2023/04/18 10:14:50;;;;;;;68.53;37.10;;;14.30;85.50;;;;;;7377957;19;20014;-71
2023/04/18 10:17:21;;;;;;;74.13;36.50;;;14.20;85.30;;;;;;7380140;19;20081;-71
2023/04/18 10:20:05;;;;;;;69.70;35.97;;;14.10;85.40;;;;;;7402858;19;20020;-71
2023/04/18 10:22:36;;;;;;;76.18;37.00;;;14.30;84.20;;;;;;7378032;19;20030;-73
2023/04/18 10:25:06;;;;;;;83.40;37.38;;;14.40;85.10;;;;;;7377315;19;20058;-73
2023/04/18 10:27:56;;;;;;;93.13;38.45;;;14.40;84.90;;;;;;7376777;19;20070;-74
2023/04/18 10:30:55;;;;;;;78.60;36.17;;;14.60;84.70;;;;;;7375174;19;20011;-72
2023/04/18 10:33:26;;;;;;;78.75;37.08;;;14.60;85.50;;;;;;7380384;19;20010;-73
2023/04/18 10:36:02;;;;;;;66.65;33.95;;;14.80;85.30;;;;;;7377586;19;20006;-72
2023/04/18 10:38:31;;;;;;;75.35;31.88;;;15.00;84.80;;;;;;7377565;19;20002;-71
2023/04/18 10:41:25;;;;;;;72.97;34.00;;;15.10;81.60;;;;;;7377574;19;20020;-71
2023/04/18 10:44:26;;;;;;;69.13;32.15;;;15.20;82.10;;;;;;7399071;19;20054;-71
2023/04/18 10:47:27;;;;;;;70.10;35.08;;;15.30;81.30;;;;;;7275668;19;2004425;-71
2023/04/18 10:50:00;;;;;;;77.50;35.45;;;15.60;81.90;;;;;;7391106;19;20094;-73
2023/04/18 10:52:34;;;;;;;67.68;35.22;;;15.70;80.70;;;;;;7406639;19;20015;-73
2023/04/18 10:55:19;;;;;;;72.85;35.28;;;15.80;79.90;;;;;;7383863;19;20366;-73
2023/04/18 10:57:49;;;;;;;79.78;34.53;;;15.70;79.70;;;;;;7382832;19;20038;-72
2023/04/18 11:00:20;;;;;;;87.88;34.35;;;15.80;80.40;;;;;;7384713;19;20007;-73
2023/04/18 11:02:54;;;;;;;69.70;35.47;;;15.60;80.10;;;;;;7386497;19;20062;-73
2023/04/18 11:05:26;;;;;;;71.43;33.03;;;15.60;80.10;;;;;;7384231;19;19998;-72
2023/04/18 11:07:58;;;;;;;76.18;30.80;;;15.70;80.50;;;;;;7400950;19;20266;-72
2023/04/18 11:10:28;;;;;;;64.18;33.63;;;15.80;78.70;;;;;;7403911;19;20362;-71
2023/04/18 11:13:03;;;;;;;62.97;33.05;;;15.80;78.40;;;;;;7383148;19;20016;-71
2023/04/18 11:15:31;;;;;;;61.92;32.70;;;15.80;79.10;;;;;;7382723;19;20028;-70
2023/04/18 11:18:02;;;;;;;49.38;25.98;;;15.90;79.60;;;;;;7385690;19;20015;-70
2023/04/18 11:20:31;;;;;;;47.17;24.50;;;16.10;76.50;;;;;;7385116;19;20021;-71
2023/04/18 11:23:02;;;;;;;49.20;24.52;;;16.30;76.00;;;;;;7382780;19;20011;-71
2023/04/18 11:25:33;;;;;;;56.38;26.33;;;16.20;76.50;;;;;;7404058;19;20268;-71
2023/04/18 11:28:03;;;;;;;54.67;27.92;;;16.40;77.30;;;;;;7382098;19;20020;-71
2023/04/18 11:30:38;;;;;;;47.13;25.10;;;16.50;77.30;;;;;;7381609;19;20003;-73
2023/04/18 11:33:09;;;;;;;50.08;24.73;;;16.60;75.20;;;;;;7385152;19;20020;-73
2023/04/18 11:35:41;;;;;;;42.72;21.40;;;16.60;74.70;;;;;;7386231;19;20364;-74
2023/04/18 11:38:14;;;;;;;41.13;19.63;;;16.80;74.20;;;;;;7383067;19;20014;-74
2023/04/18 11:40:49;;;;;;;38.45;19.85;;;17.00;72.80;;;;;;7406986;19;20030;-74
2023/04/18 11:43:22;;;;;;;34.55;20.00;;;17.00;71.40;;;;;;7386073;19;20019;-74
2023/04/18 11:45:55;;;;;;;34.45;19.42;;;17.10;72.00;;;;;;7385135;19;20002;-74
2023/04/18 11:48:24;;;;;;;35.75;18.73;;;17.00;70.50;;;;;;7382767;19;20023;-74
2023/04/18 11:50:53;;;;;;;35.80;18.38;;;17.00;70.70;;;;;;7381227;19;19999;-74
2023/04/18 11:53:37;;;;;;;30.02;16.55;;;17.10;70.00;;;;;;7382367;19;20074;-74
2023/04/18 11:56:06;;;;;;;39.33;18.35;;;17.10;68.50;;;;;;7382759;19;20003;-75
2023/04/18 11:58:36;;;;;;;38.08;19.17;;;17.10;68.60;;;;;;7409583;19;20014;-74
2023/04/18 12:01:18;;;;;;;34.70;20.52;;;17.00;69.70;;;;;;7382111;19;20007;-74
2023/04/18 12:04:00;;;;;;;33.28;19.13;;;16.90;70.00;;;;;;7384203;19;20034;-74
2023/04/18 12:06:30;;;;;;;39.10;19.88;;;16.90;69.90;;;;;;7382688;19;20016;-73
2023/04/18 12:09:04;;;;;;;30.88;17.80;;;16.90;70.80;;;;;;7382107;19;20295;-74
2023/04/18 12:11:33;;;;;;;34.92;18.40;;;17.00;70.80;;;;;;7380886;19;20003;-73
2023/04/18 12:14:02;;;;;;;34.38;17.15;;;17.00;71.40;;;;;;7381386;19;20020;-73
2023/04/18 12:16:32;;;;;;;28.20;16.77;;;17.10;71.60;;;;;;7404080;19;20026;-73
2023/04/18 12:19:02;;;;;;;33.53;18.75;;;17.20;70.90;;;;;;7380543;19;20019;-73
2023/04/18 12:21:31;;;;;;;33.45;19.52;;;17.20;70.40;;;;;;7380546;19;20019;-73
2023/04/18 12:24:00;;;;;;;33.60;18.05;;;17.30;70.30;;;;;;7380767;19;19999;-73
2023/04/18 12:26:31;;;;;;;30.15;17.80;;;17.40;71.20;;;;;;7379934;19;20002;-73
2023/04/18 12:29:02;;;;;;;24.40;16.88;;;17.60;70.60;;;;;;7381600;19;20027;-72
2023/04/18 12:31:32;;;;;;;28.70;16.80;;;17.70;70.00;;;;;;7401338;19;20039;-74
2023/04/18 12:34:00;;;;;;;35.60;18.52;;;17.70;68.90;;;;;;7380361;19;20009;-73
2023/04/18 12:36:29;;;;;;;33.75;19.10;;;17.80;68.80;;;;;;7379792;19;20369;-73
2023/04/18 12:38:58;;;;;;;31.52;17.83;;;17.70;68.60;;;;;;7381070;19;20013;-73